createdAt,value
2019-04-03T00:00:35.043Z,26.91
2019-04-03T00:01:34.892Z,26.84
2019-04-03T00:02:35.050Z,26.85
2019-04-03T00:03:34.851Z,26.92
2019-04-03T00:04:34.851Z,26.92
2019-04-03T00:05:35.452Z,26.89
2019-04-03T00:06:35.409Z,26.89
2019-04-03T00:07:35.887Z,26.82
2019-04-03T00:08:36.680Z,26.89
2019-04-03T00:09:36.513Z,26.89
2019-04-03T00:10:35.956Z,26.92
2019-04-03T00:11:34.869Z,26.94
2019-04-03T00:12:35.000Z,26.92
2019-04-03T00:13:34.877Z,26.91
2019-04-03T00:14:34.881Z,26.89
2019-04-03T00:15:34.905Z,26.91
2019-04-03T00:16:34.884Z,26.89
2019-04-03T00:17:34.889Z,26.89
2019-04-03T00:18:34.903Z,26.91
2019-04-03T00:19:34.892Z,26.84
2019-04-03T00:20:34.895Z,26.89
2019-04-03T00:21:34.897Z,26.92
2019-04-03T00:22:34.900Z,26.88
2019-04-03T00:23:35.047Z,26.84
2019-04-03T00:24:34.908Z,26.91
2019-04-03T00:25:34.907Z,26.87
2019-04-03T00:26:35.039Z,26.82
2019-04-03T00:27:34.913Z,26.91
2019-04-03T00:28:34.917Z,26.89
2019-04-03T00:29:34.918Z,26.84
2019-04-03T00:30:34.920Z,26.94
2019-04-03T00:31:34.958Z,26.92
2019-04-03T00:32:34.929Z,26.89
2019-04-03T00:33:34.928Z,26.88
2019-04-03T00:34:34.930Z,26.89
2019-04-03T00:35:34.934Z,26.88
2019-04-03T00:36:34.940Z,26.85
2019-04-03T00:37:35.020Z,26.84
2019-04-03T00:38:34.946Z,26.87
2019-04-03T00:39:34.946Z,26.88
2019-04-03T00:40:34.946Z,26.89
2019-04-03T00:41:34.949Z,26.82
2019-04-03T00:42:35.074Z,26.85
2019-04-03T00:43:34.954Z,26.91
2019-04-03T00:44:34.958Z,26.88
2019-04-03T00:45:34.960Z,26.91
2019-04-03T00:46:34.962Z,26.87
2019-04-03T00:47:34.964Z,26.88
2019-04-03T00:48:34.968Z,26.85
2019-04-03T00:49:35.021Z,26.87
2019-04-03T00:50:34.972Z,26.85
2019-04-03T00:51:34.976Z,26.87
2019-04-03T00:52:34.979Z,26.84
2019-04-03T00:53:34.982Z,26.84
2019-04-03T00:54:34.983Z,26.80
2019-04-03T00:55:35.063Z,26.88
2019-04-03T00:56:34.988Z,26.85
2019-04-03T00:57:34.991Z,26.89
2019-04-03T00:58:34.995Z,26.91
2019-04-03T00:59:35.102Z,26.82
2019-04-03T01:00:34.997Z,26.88
2019-04-03T01:01:35.002Z,26.81
2019-04-03T01:02:35.004Z,26.85
2019-04-03T01:03:35.011Z,26.84
2019-04-03T01:04:35.238Z,26.81
2019-04-03T01:05:35.015Z,26.91
2019-04-03T01:06:35.014Z,26.85
2019-04-03T01:07:35.020Z,26.89
2019-04-03T01:08:35.022Z,26.89
2019-04-03T01:09:35.024Z,26.84
2019-04-03T01:10:35.024Z,26.88
2019-04-03T01:11:35.027Z,26.84
2019-04-03T01:12:35.030Z,26.91
2019-04-03T01:13:35.052Z,26.85
2019-04-03T01:14:35.094Z,26.84
2019-04-03T01:15:35.038Z,26.80
2019-04-03T01:16:35.046Z,26.87
2019-04-03T01:17:35.267Z,26.89
2019-04-03T01:18:35.456Z,26.87
2019-04-03T01:19:36.730Z,26.84
2019-04-03T01:20:36.287Z,26.87
2019-04-03T01:21:37.218Z,26.89
2019-04-03T01:22:35.597Z,26.85
2019-04-03T01:23:37.034Z,26.81
2019-04-03T01:24:35.063Z,26.84
2019-04-03T01:25:35.066Z,26.87
2019-04-03T01:26:35.067Z,26.85
2019-04-03T01:27:35.068Z,26.88
2019-04-03T01:28:35.154Z,26.85
2019-04-03T01:29:35.076Z,26.77
2019-04-03T01:30:35.077Z,26.84
2019-04-03T01:31:35.081Z,26.85
2019-04-03T01:32:35.134Z,26.87
2019-04-03T01:33:35.088Z,26.88
2019-04-03T01:34:35.091Z,26.81
2019-04-03T01:35:35.090Z,26.89
2019-04-03T01:36:35.093Z,26.85
2019-04-03T01:37:35.097Z,26.85
2019-04-03T01:38:35.107Z,26.80
2019-04-03T01:39:35.101Z,26.89
2019-04-03T01:40:35.103Z,26.85
2019-04-03T01:41:35.106Z,26.84
2019-04-03T01:42:35.108Z,26.81
2019-04-03T01:43:35.112Z,26.88
2019-04-03T01:44:35.174Z,26.80
2019-04-03T01:45:35.117Z,26.87
2019-04-03T01:46:35.118Z,26.85
2019-04-03T01:47:35.122Z,26.84
2019-04-03T01:48:35.124Z,26.81
2019-04-03T01:49:35.128Z,26.85
2019-04-03T01:50:35.129Z,26.87
2019-04-03T01:51:35.137Z,26.84
2019-04-03T01:52:35.133Z,26.85
2019-04-03T01:53:35.144Z,26.88
2019-04-03T01:54:35.140Z,26.82
2019-04-03T01:55:35.215Z,26.84
2019-04-03T01:56:35.889Z,26.84
2019-04-03T01:57:36.663Z,26.82
2019-04-03T01:58:36.350Z,26.87
2019-04-03T01:59:35.826Z,26.84
2019-04-03T02:00:37.246Z,26.76
2019-04-03T02:01:36.505Z,26.76
2019-04-03T02:02:35.160Z,26.81
2019-04-03T02:03:35.166Z,26.84
2019-04-03T02:04:35.169Z,26.84
2019-04-03T02:05:35.169Z,26.85
2019-04-03T02:06:35.175Z,26.77
2019-04-03T02:07:35.176Z,26.77
2019-04-03T02:08:35.178Z,26.75
2019-04-03T02:09:35.180Z,26.82
2019-04-03T02:10:35.303Z,26.76
2019-04-03T02:11:35.184Z,26.80
2019-04-03T02:12:35.188Z,26.84
2019-04-03T02:13:35.192Z,26.85
2019-04-03T02:14:35.268Z,26.84
2019-04-03T02:15:35.193Z,26.85
2019-04-03T02:16:35.199Z,26.80
2019-04-03T02:17:35.201Z,26.85
2019-04-03T02:18:35.207Z,26.80
2019-04-03T02:19:35.205Z,26.84
2019-04-03T02:20:35.368Z,26.81
2019-04-03T02:21:35.213Z,26.80
2019-04-03T02:22:35.213Z,26.88
2019-04-03T02:23:35.215Z,26.84
2019-04-03T02:24:35.220Z,26.87
2019-04-03T02:25:35.221Z,26.80
2019-04-03T02:26:35.223Z,26.84
2019-04-03T02:27:35.227Z,26.81
2019-04-03T02:28:35.298Z,26.84
2019-04-03T02:29:35.283Z,26.91
2019-04-03T02:30:35.236Z,26.82
2019-04-03T02:31:35.341Z,26.77
2019-04-03T02:32:35.240Z,26.81
2019-04-03T02:33:35.243Z,26.87
2019-04-03T02:34:36.163Z,26.81
2019-04-03T02:35:39.023Z,26.84
2019-04-03T02:36:35.252Z,26.82
2019-04-03T02:37:35.254Z,26.80
2019-04-03T02:38:35.270Z,26.82
2019-04-03T02:39:35.271Z,26.81
2019-04-03T02:40:35.270Z,26.89
2019-04-03T02:41:36.745Z,26.80
2019-04-03T02:42:35.273Z,26.82
2019-04-03T02:43:35.391Z,26.76
2019-04-03T02:44:35.274Z,26.84
2019-04-03T02:45:35.273Z,26.85
2019-04-03T02:46:35.474Z,26.88
2019-04-03T02:47:35.279Z,26.85
2019-04-03T02:48:38.328Z,26.84
2019-04-03T02:49:35.284Z,26.84
2019-04-03T02:50:35.304Z,26.87
2019-04-03T02:51:35.286Z,26.84
2019-04-03T02:52:35.292Z,26.81
2019-04-03T02:53:35.426Z,26.81
2019-04-03T02:54:36.243Z,26.88
2019-04-03T02:55:39.312Z,26.85
2019-04-03T02:56:35.304Z,26.84
2019-04-03T02:57:35.305Z,26.87
2019-04-03T02:58:35.306Z,26.82
2019-04-03T02:59:35.309Z,26.87
2019-04-03T03:00:35.313Z,26.84
2019-04-03T03:01:38.281Z,26.76
2019-04-03T03:02:35.368Z,26.76
2019-04-03T03:03:35.319Z,26.85
2019-04-03T03:04:35.324Z,26.80
2019-04-03T03:05:35.334Z,26.80
2019-04-03T03:06:35.325Z,26.77
2019-04-03T03:07:36.407Z,26.80
2019-04-03T03:08:35.333Z,26.81
2019-04-03T03:09:35.343Z,26.87
2019-04-03T03:10:35.339Z,26.84
2019-04-03T03:11:35.351Z,26.85
2019-04-03T03:12:35.352Z,26.77
2019-04-03T03:13:35.797Z,26.81
2019-04-03T03:14:38.258Z,26.73
2019-04-03T03:15:35.357Z,26.77
2019-04-03T03:16:35.367Z,26.76
2019-04-03T03:17:35.358Z,26.81
2019-04-03T03:18:35.554Z,26.84
2019-04-03T03:19:35.361Z,26.80
2019-04-03T03:20:38.564Z,26.85
2019-04-03T03:21:35.367Z,26.89
2019-04-03T03:22:35.685Z,26.92
2019-04-03T03:23:35.377Z,26.88
2019-04-03T03:24:35.375Z,26.82
2019-04-03T03:25:35.730Z,26.88
2019-04-03T03:26:37.361Z,26.88
2019-04-03T03:27:35.689Z,26.87
2019-04-03T03:28:35.385Z,26.81
2019-04-03T03:29:35.389Z,26.82
2019-04-03T03:30:43.806Z,26.81
2019-04-03T03:32:01.440Z,26.84
2019-04-03T03:32:36.843Z,26.77
2019-04-03T03:33:38.982Z,26.82
2019-04-03T03:34:51.389Z,26.87
2019-04-03T03:35:41.359Z,26.85
2019-04-03T03:36:35.779Z,26.77
2019-04-03T03:37:35.718Z,26.84
2019-04-03T03:38:38.110Z,26.76
2019-04-03T03:39:35.418Z,26.73
2019-04-03T03:40:35.421Z,26.81
2019-04-03T03:41:35.429Z,26.82
2019-04-03T03:42:35.435Z,26.84
2019-04-03T03:43:38.209Z,26.81
2019-04-03T03:44:35.431Z,26.85
2019-04-03T03:45:35.438Z,26.81
2019-04-03T03:46:35.434Z,26.85
2019-04-03T03:47:36.358Z,26.80
2019-04-03T03:48:35.436Z,26.77
2019-04-03T03:49:35.653Z,26.80
2019-04-03T03:50:35.932Z,26.85
2019-04-03T03:51:35.445Z,26.85
2019-04-03T03:52:36.795Z,26.84
2019-04-03T03:53:35.593Z,26.87
2019-04-03T03:54:35.455Z,26.81
2019-04-03T03:55:35.572Z,26.76
2019-04-03T03:56:35.643Z,26.76
2019-04-03T03:57:37.980Z,26.73
2019-04-03T03:58:35.601Z,26.80
2019-04-03T03:59:35.481Z,26.76
2019-04-03T04:00:35.572Z,26.75
2019-04-03T04:01:35.472Z,26.76
2019-04-03T04:02:36.628Z,26.80
2019-04-03T04:03:35.686Z,26.75
2019-04-03T04:04:35.497Z,26.82
2019-04-03T04:05:35.481Z,26.88
2019-04-03T04:06:36.649Z,26.80
2019-04-03T04:07:37.419Z,26.80
2019-04-03T04:08:35.489Z,26.81
2019-04-03T04:09:35.670Z,26.87
2019-04-03T04:10:36.487Z,26.82
2019-04-03T04:11:35.503Z,26.80
2019-04-03T04:12:39.861Z,26.76
2019-04-03T04:13:35.889Z,26.82
2019-04-03T04:14:35.506Z,26.80
2019-04-03T04:15:35.572Z,26.82
2019-04-03T04:16:37.117Z,26.85
2019-04-03T04:17:35.874Z,26.84
2019-04-03T04:18:35.514Z,26.87
2019-04-03T04:19:35.591Z,26.92
2019-04-03T04:20:37.720Z,26.77
2019-04-03T04:21:35.522Z,26.88
2019-04-03T04:22:35.529Z,26.84
2019-04-03T04:23:35.527Z,26.88
2019-04-03T04:24:35.810Z,26.80
2019-04-03T04:25:35.533Z,26.84
2019-04-03T04:26:35.533Z,26.84
2019-04-03T04:27:37.695Z,26.80
2019-04-03T04:28:35.539Z,26.82
2019-04-03T04:29:35.547Z,26.84
2019-04-03T04:30:35.763Z,26.81
2019-04-03T04:31:35.548Z,26.85
2019-04-03T04:32:35.592Z,26.81
2019-04-03T04:33:35.553Z,26.91
2019-04-03T04:34:35.557Z,26.84
2019-04-03T04:35:35.557Z,26.81
2019-04-03T04:36:35.585Z,26.76
2019-04-03T04:37:35.563Z,26.87
2019-04-03T04:38:35.566Z,26.85
2019-04-03T04:39:35.569Z,26.89
2019-04-03T04:40:35.576Z,26.88
2019-04-03T04:41:35.712Z,26.91
2019-04-03T04:42:35.575Z,26.95
2019-04-03T04:43:35.579Z,26.91
2019-04-03T04:44:35.581Z,26.97
2019-04-03T04:45:35.591Z,26.94
2019-04-03T04:46:35.584Z,26.88
2019-04-03T04:47:35.794Z,26.94
2019-04-03T04:48:35.591Z,26.91
2019-04-03T04:49:35.592Z,27.00
2019-04-03T04:50:35.597Z,26.95
2019-04-03T04:51:35.808Z,26.89
2019-04-03T04:52:35.605Z,26.94
2019-04-03T04:53:35.942Z,26.97
2019-04-03T04:54:35.610Z,26.99
2019-04-03T04:55:35.985Z,27.02
2019-04-03T04:56:35.794Z,27.09
2019-04-03T04:57:35.618Z,27.03
2019-04-03T04:58:35.618Z,27.10
2019-04-03T04:59:36.675Z,27.10
2019-04-03T05:00:35.744Z,27.09
2019-04-03T05:01:35.627Z,27.17
2019-04-03T05:02:35.818Z,27.14
2019-04-03T05:03:35.633Z,27.09
2019-04-03T05:04:35.639Z,27.06
2019-04-03T05:05:35.898Z,27.17
2019-04-03T05:06:35.638Z,27.12
2019-04-03T05:07:35.736Z,27.12
2019-04-03T05:08:35.645Z,27.18
2019-04-03T05:09:35.647Z,27.14
2019-04-03T05:10:36.902Z,27.10
2019-04-03T05:11:36.868Z,27.19
2019-04-03T05:12:35.655Z,27.18
2019-04-03T05:13:35.817Z,27.19
2019-04-03T05:14:35.660Z,27.22
2019-04-03T05:15:35.663Z,27.25
2019-04-03T05:16:35.667Z,27.17
2019-04-03T05:17:35.674Z,27.21
2019-04-03T05:18:35.671Z,27.25
2019-04-03T05:19:35.675Z,27.18
2019-04-03T05:20:35.677Z,27.22
2019-04-03T05:21:35.684Z,27.27
2019-04-03T05:22:35.683Z,27.22
2019-04-03T05:23:35.686Z,27.22
2019-04-03T05:24:35.688Z,27.22
2019-04-03T05:25:35.691Z,27.25
2019-04-03T05:26:35.696Z,27.25
2019-04-03T05:27:35.698Z,27.27
2019-04-03T05:28:35.700Z,27.24
2019-04-03T05:29:35.702Z,27.18
2019-04-03T05:30:37.549Z,27.29
2019-04-03T05:31:38.568Z,27.29
2019-04-03T05:32:35.712Z,27.32
2019-04-03T05:33:35.714Z,27.36
2019-04-03T05:34:35.789Z,27.36
2019-04-03T05:35:37.575Z,27.32
2019-04-03T05:36:35.722Z,27.31
2019-04-03T05:37:35.781Z,27.39
2019-04-03T05:38:37.679Z,27.36
2019-04-03T05:39:35.819Z,27.32
2019-04-03T05:40:35.733Z,27.28
2019-04-03T05:41:35.736Z,27.31
2019-04-03T05:42:35.740Z,27.29
2019-04-03T05:43:35.744Z,27.29
2019-04-03T05:44:35.743Z,27.29
2019-04-03T05:45:35.826Z,27.34
2019-04-03T05:46:37.617Z,27.37
2019-04-03T05:47:38.910Z,27.40
2019-04-03T05:48:35.780Z,27.41
2019-04-03T05:49:35.760Z,27.41
2019-04-03T05:50:36.801Z,27.41
2019-04-03T05:51:35.848Z,27.43
2019-04-03T05:52:36.048Z,27.40
2019-04-03T05:53:37.173Z,27.46
2019-04-03T05:54:38.793Z,27.43
2019-04-03T05:55:35.776Z,27.46
2019-04-03T05:56:35.961Z,27.40
2019-04-03T05:57:35.784Z,27.41
2019-04-03T05:58:35.787Z,27.41
2019-04-03T05:59:35.841Z,27.34
2019-04-03T06:00:37.500Z,27.41
2019-04-03T06:01:36.394Z,27.37
2019-04-03T06:02:35.798Z,27.41
2019-04-03T06:03:42.264Z,27.41
2019-04-03T06:04:35.966Z,27.44
2019-04-03T06:05:35.805Z,27.40
2019-04-03T06:06:35.806Z,27.40
2019-04-03T06:07:35.813Z,27.44
2019-04-03T06:08:35.815Z,27.47
2019-04-03T06:09:35.820Z,27.47
2019-04-03T06:10:37.420Z,27.37
2019-04-03T06:11:35.826Z,27.46
2019-04-03T06:12:37.361Z,27.46
2019-04-03T06:13:35.833Z,27.41
2019-04-03T06:14:35.832Z,27.46
2019-04-03T06:15:35.837Z,27.39
2019-04-03T06:16:35.890Z,27.49
2019-04-03T06:17:35.841Z,27.39
2019-04-03T06:18:35.844Z,27.49
2019-04-03T06:19:39.191Z,27.40
2019-04-03T06:20:35.849Z,27.36
2019-04-03T06:21:35.964Z,27.40
2019-04-03T06:22:35.855Z,27.40
2019-04-03T06:23:36.011Z,27.43
2019-04-03T06:24:35.862Z,27.41
2019-04-03T06:25:35.982Z,27.46
2019-04-03T06:26:37.829Z,27.44
2019-04-03T06:27:35.871Z,27.46
2019-04-03T06:28:35.873Z,27.41
2019-04-03T06:29:35.980Z,27.41
2019-04-03T06:30:36.087Z,27.43
2019-04-03T06:31:35.888Z,27.50
2019-04-03T06:32:35.887Z,27.40
2019-04-03T06:33:36.639Z,27.43
2019-04-03T06:34:38.428Z,27.41
2019-04-03T06:35:35.908Z,27.39
2019-04-03T06:36:36.039Z,27.40
2019-04-03T06:37:35.954Z,27.50
2019-04-03T06:38:35.903Z,27.49
2019-04-03T06:39:35.905Z,27.54
2019-04-03T06:40:36.370Z,27.55
2019-04-03T06:41:35.974Z,27.46
2019-04-03T06:42:35.913Z,27.51
2019-04-03T06:43:35.921Z,27.54
2019-04-03T06:44:36.117Z,27.51
2019-04-03T06:45:35.923Z,27.55
2019-04-03T06:46:35.930Z,27.57
2019-04-03T06:47:35.980Z,27.55
2019-04-03T06:48:36.810Z,27.55
2019-04-03T06:49:35.936Z,27.62
2019-04-03T06:50:35.937Z,27.54
2019-04-03T06:51:35.942Z,27.51
2019-04-03T06:52:35.944Z,27.59
2019-04-03T06:53:35.948Z,27.54
2019-04-03T06:54:35.950Z,27.54
2019-04-03T06:55:36.592Z,27.59
2019-04-03T06:56:35.957Z,27.70
2019-04-03T06:57:35.961Z,27.65
2019-04-03T06:58:38.962Z,27.67
2019-04-03T06:59:35.965Z,27.67
2019-04-03T07:00:35.992Z,27.69
2019-04-03T07:01:36.052Z,27.67
2019-04-03T07:02:35.970Z,27.67
2019-04-03T07:03:36.038Z,27.60
2019-04-03T07:04:37.504Z,27.66
2019-04-03T07:05:35.982Z,27.67
2019-04-03T07:06:36.033Z,27.77
2019-04-03T07:07:36.177Z,27.67
2019-04-03T07:08:38.099Z,27.79
2019-04-03T07:09:36.959Z,27.74
2019-04-03T07:10:36.543Z,27.74
2019-04-03T07:11:36.053Z,27.78
2019-04-03T07:12:36.082Z,27.70
2019-04-03T07:13:36.127Z,27.77
2019-04-03T07:14:36.017Z,27.67
2019-04-03T07:15:36.218Z,27.75
2019-04-03T07:16:38.174Z,27.78
2019-04-03T07:17:36.033Z,27.81
2019-04-03T07:18:37.058Z,27.84
2019-04-03T07:19:36.077Z,27.79
2019-04-03T07:20:36.183Z,27.84
2019-04-03T07:21:36.031Z,27.79
2019-04-03T07:22:36.263Z,27.63
2019-04-03T07:23:36.042Z,27.78
2019-04-03T07:24:36.050Z,27.81
2019-04-03T07:25:36.046Z,27.79
2019-04-03T07:26:36.331Z,27.81
2019-04-03T07:27:37.414Z,27.75
2019-04-03T07:28:36.306Z,27.92
2019-04-03T07:29:36.106Z,27.85
2019-04-03T07:30:36.119Z,27.81
2019-04-03T07:31:36.064Z,27.74
2019-04-03T07:32:36.067Z,27.84
2019-04-03T07:33:36.153Z,27.72
2019-04-03T07:34:36.070Z,27.79
2019-04-03T07:35:36.202Z,27.90
2019-04-03T07:36:36.080Z,27.82
2019-04-03T07:37:36.081Z,27.85
2019-04-03T07:38:36.134Z,27.84
2019-04-03T07:39:36.188Z,27.85
2019-04-03T07:40:36.089Z,27.81
2019-04-03T07:41:36.307Z,27.90
2019-04-03T07:42:36.145Z,27.93
2019-04-03T07:43:36.105Z,27.84
2019-04-03T07:44:36.102Z,27.96
2019-04-03T07:45:36.108Z,27.70
2019-04-03T07:46:36.108Z,27.75
2019-04-03T07:47:36.114Z,27.87
2019-04-03T07:48:37.896Z,27.90
2019-04-03T07:49:36.134Z,27.84
2019-04-03T07:50:37.133Z,27.84
2019-04-03T07:51:36.133Z,27.77
2019-04-03T07:52:36.176Z,27.74
2019-04-03T07:53:36.131Z,27.84
2019-04-03T07:54:36.134Z,27.92
2019-04-03T07:55:36.135Z,27.85
2019-04-03T07:56:36.140Z,27.84
2019-04-03T07:57:37.107Z,27.85
2019-04-03T07:58:36.343Z,27.79
2019-04-03T07:59:36.150Z,27.79
2019-04-03T08:00:38.379Z,27.79
2019-04-03T08:01:36.355Z,27.96
2019-04-03T08:02:36.169Z,27.84
2019-04-03T08:03:36.161Z,27.90
2019-04-03T08:04:36.179Z,27.93
2019-04-03T08:05:36.169Z,27.90
2019-04-03T08:06:36.469Z,27.94
2019-04-03T08:07:36.174Z,27.93
2019-04-03T08:08:36.179Z,27.90
2019-04-03T08:09:36.180Z,27.88
2019-04-03T08:10:37.773Z,27.93
2019-04-03T08:11:37.351Z,27.93
2019-04-03T08:12:36.192Z,27.92
2019-04-03T08:13:38.391Z,27.94
2019-04-03T08:14:36.302Z,27.84
2019-04-03T08:15:36.363Z,27.92
2019-04-03T08:16:36.210Z,27.93
2019-04-03T08:17:36.206Z,27.94
2019-04-03T08:18:36.263Z,27.85
2019-04-03T08:19:36.212Z,27.85
2019-04-03T08:20:36.218Z,27.97
2019-04-03T08:21:36.450Z,27.93
2019-04-03T08:22:36.224Z,27.94
2019-04-03T08:23:37.220Z,27.96
2019-04-03T08:24:37.940Z,27.94
2019-04-03T08:25:36.280Z,27.85
2019-04-03T08:26:36.234Z,27.92
2019-04-03T08:27:36.238Z,27.93
2019-04-03T08:28:36.581Z,27.93
2019-04-03T08:29:38.216Z,27.92
2019-04-03T08:30:37.028Z,27.92
2019-04-03T08:31:36.298Z,27.90
2019-04-03T08:32:36.306Z,27.97
2019-04-03T08:33:36.259Z,27.88
2019-04-03T08:34:36.427Z,27.93
2019-04-03T08:35:36.491Z,27.90
2019-04-03T08:36:38.341Z,27.92
2019-04-03T08:37:36.703Z,27.88
2019-04-03T08:38:36.438Z,27.92
2019-04-03T08:39:36.652Z,28.03
2019-04-03T08:40:36.330Z,27.94
2019-04-03T08:41:37.396Z,27.97
2019-04-03T08:42:36.281Z,27.99
2019-04-03T08:43:36.292Z,27.94
2019-04-03T08:44:36.523Z,27.93
2019-04-03T08:45:38.420Z,27.96
2019-04-03T08:46:36.399Z,27.99
2019-04-03T08:47:37.647Z,28.06
2019-04-03T08:48:36.310Z,28.03
2019-04-03T08:49:36.308Z,28.00
2019-04-03T08:50:36.541Z,28.04
2019-04-03T08:51:36.441Z,28.09
2019-04-03T08:52:37.121Z,28.11
2019-04-03T08:53:38.484Z,28.06
2019-04-03T08:54:36.373Z,28.11
2019-04-03T08:55:36.327Z,28.07
2019-04-03T08:56:36.337Z,27.99
2019-04-03T08:57:36.461Z,28.07
2019-04-03T08:58:36.342Z,27.93
2019-04-03T08:59:36.341Z,28.06
2019-04-03T09:00:36.346Z,27.97
2019-04-03T09:01:37.266Z,27.96
2019-04-03T09:02:36.693Z,28.03
2019-04-03T09:03:36.591Z,28.11
2019-04-03T09:04:36.522Z,28.00
2019-04-03T09:05:36.411Z,28.09
2019-04-03T09:06:36.463Z,28.04
2019-04-03T09:07:36.370Z,28.06
2019-04-03T09:08:36.661Z,28.09
2019-04-03T09:09:36.473Z,28.04
2019-04-03T09:10:37.522Z,28.04
2019-04-03T09:11:37.166Z,28.14
2019-04-03T09:12:38.437Z,28.07
2019-04-03T09:13:36.436Z,28.04
2019-04-03T09:14:36.387Z,28.07
2019-04-03T09:15:36.444Z,28.09
2019-04-03T09:16:36.813Z,28.04
2019-04-03T09:17:36.655Z,28.03
2019-04-03T09:18:38.356Z,28.04
2019-04-03T09:19:36.411Z,28.09
2019-04-03T09:20:36.830Z,28.07
2019-04-03T09:21:36.411Z,28.06
2019-04-03T09:22:36.611Z,28.18
2019-04-03T09:23:36.468Z,28.04
2019-04-03T09:24:36.428Z,28.09
2019-04-03T09:25:36.429Z,28.09
2019-04-03T09:26:38.051Z,28.04
2019-04-03T09:27:39.396Z,28.07
2019-04-03T09:28:36.435Z,28.15
2019-04-03T09:29:36.439Z,28.12
2019-04-03T09:30:36.980Z,28.12
2019-04-03T09:31:36.497Z,28.12
2019-04-03T09:32:37.478Z,28.03
2019-04-03T09:33:36.503Z,28.03
2019-04-03T09:34:36.455Z,28.12
2019-04-03T09:35:36.457Z,28.04
2019-04-03T09:36:36.512Z,28.03
2019-04-03T09:37:38.036Z,28.06
2019-04-03T09:38:36.584Z,28.12
2019-04-03T09:39:36.472Z,28.14
2019-04-03T09:40:36.476Z,28.00
2019-04-03T09:41:36.479Z,28.02
2019-04-03T09:42:36.482Z,28.03
2019-04-03T09:43:39.029Z,28.14
2019-04-03T09:44:36.487Z,28.11
2019-04-03T09:45:36.640Z,28.07
2019-04-03T09:46:36.626Z,28.07
2019-04-03T09:47:36.549Z,28.18
2019-04-03T09:48:36.788Z,28.12
2019-04-03T09:49:38.194Z,28.12
2019-04-03T09:50:36.739Z,28.12
2019-04-03T09:51:36.508Z,28.19
2019-04-03T09:52:42.358Z,28.04
2019-04-03T09:53:36.579Z,28.15
2019-04-03T09:54:36.524Z,28.17
2019-04-03T09:55:37.592Z,28.21
2019-04-03T09:56:37.538Z,28.15
2019-04-03T09:57:36.638Z,28.14
2019-04-03T09:58:36.740Z,28.18
2019-04-03T09:59:37.810Z,28.14
2019-04-03T10:00:36.591Z,28.17
2019-04-03T10:01:37.219Z,28.18
2019-04-03T10:02:36.898Z,28.18
2019-04-03T10:03:37.128Z,28.17
2019-04-03T10:04:36.637Z,28.18
2019-04-03T10:05:36.613Z,28.15
2019-04-03T10:06:36.562Z,28.18
2019-04-03T10:07:37.204Z,28.15
2019-04-03T10:08:38.103Z,28.11
2019-04-03T10:09:38.674Z,28.17
2019-04-03T10:10:36.954Z,28.17
2019-04-03T10:11:38.745Z,28.25
2019-04-03T10:12:36.870Z,28.21
2019-04-03T10:13:36.636Z,28.21
2019-04-03T10:14:36.639Z,28.19
2019-04-03T10:15:36.593Z,28.22
2019-04-03T10:16:36.695Z,28.24
2019-04-03T10:17:37.478Z,28.31
2019-04-03T10:18:36.600Z,28.31
2019-04-03T10:19:36.708Z,28.25
2019-04-03T10:20:36.693Z,28.31
2019-04-03T10:21:36.612Z,28.24
2019-04-03T10:22:36.614Z,28.34
2019-04-03T10:23:36.620Z,28.25
2019-04-03T10:24:36.621Z,28.29
2019-04-03T10:25:37.686Z,28.25
2019-04-03T10:26:39.432Z,28.27
2019-04-03T10:27:36.933Z,28.27
2019-04-03T10:28:36.689Z,28.27
2019-04-03T10:29:36.640Z,28.25
2019-04-03T10:30:36.641Z,28.22
2019-04-03T10:31:36.645Z,28.22
2019-04-03T10:32:36.814Z,28.22
2019-04-03T10:33:36.654Z,28.24
2019-04-03T10:34:36.807Z,28.15
2019-04-03T10:35:38.573Z,28.19
2019-04-03T10:36:36.662Z,28.22
2019-04-03T10:37:36.677Z,28.18
2019-04-03T10:38:36.673Z,28.15
2019-04-03T10:39:40.015Z,28.27
2019-04-03T10:40:36.724Z,28.21
2019-04-03T10:41:36.777Z,28.19
2019-04-03T10:42:36.909Z,28.25
2019-04-03T10:43:37.605Z,28.22
2019-04-03T10:44:36.695Z,28.29
2019-04-03T10:45:36.992Z,28.22
2019-04-03T10:46:36.740Z,28.21
2019-04-03T10:47:42.066Z,28.18
2019-04-03T10:48:36.805Z,28.21
2019-04-03T10:49:36.976Z,28.22
2019-04-03T10:50:38.041Z,28.17
2019-04-03T10:51:36.724Z,28.21
2019-04-03T10:52:36.713Z,28.19
2019-04-03T10:53:36.782Z,28.18
2019-04-03T10:54:38.004Z,28.25
2019-04-03T10:55:36.888Z,28.18
2019-04-03T10:56:36.729Z,28.22
2019-04-03T10:57:36.735Z,28.19
2019-04-03T10:58:38.081Z,28.19
2019-04-03T10:59:36.962Z,28.18
2019-04-03T11:00:37.039Z,28.22
2019-04-03T11:01:36.846Z,28.22
2019-04-03T11:02:36.799Z,28.09
2019-04-03T11:03:36.753Z,28.24
2019-04-03T11:04:36.867Z,28.17
2019-04-03T11:05:36.763Z,28.07
2019-04-03T11:06:37.852Z,28.09
2019-04-03T11:07:36.854Z,28.09
2019-04-03T11:08:37.026Z,28.03
2019-04-03T11:09:36.927Z,28.03
2019-04-03T11:10:36.779Z,28.12
2019-04-03T11:11:37.661Z,28.04
2019-04-03T11:12:36.782Z,28.06
2019-04-03T11:13:36.998Z,28.00
2019-04-03T11:14:39.003Z,28.04
2019-04-03T11:15:36.791Z,28.14
2019-04-03T11:16:38.656Z,28.09
2019-04-03T11:17:36.801Z,27.97
2019-04-03T11:18:37.182Z,28.04
2019-04-03T11:19:37.392Z,28.11
2019-04-03T11:20:37.187Z,28.06
2019-04-03T11:21:36.813Z,28.07
2019-04-03T11:22:41.100Z,28.09
2019-04-03T11:23:43.521Z,28.03
2019-04-03T11:24:39.796Z,28.09
2019-04-03T11:25:36.832Z,28.09
2019-04-03T11:26:37.226Z,28.06
2019-04-03T11:27:45.596Z,28.09
2019-04-03T11:28:38.161Z,28.09
2019-04-03T11:29:36.851Z,28.06
2019-04-03T11:30:36.892Z,27.97
2019-04-03T11:31:41.381Z,28.07
2019-04-03T11:32:37.084Z,28.09
2019-04-03T11:33:36.863Z,28.09
2019-04-03T11:34:36.856Z,28.07
2019-04-03T11:35:37.139Z,28.07
2019-04-03T11:36:37.003Z,27.94
2019-04-03T11:37:37.207Z,27.94
2019-04-03T11:38:36.868Z,27.97
2019-04-03T11:39:37.529Z,28.00
2019-04-03T11:40:36.874Z,28.02
2019-04-03T11:41:36.928Z,27.97
2019-04-03T11:42:36.880Z,27.87
2019-04-03T11:43:36.974Z,27.97
2019-04-03T11:44:37.080Z,27.92
2019-04-03T11:45:36.943Z,27.85
2019-04-03T11:46:36.896Z,27.93
2019-04-03T11:47:37.077Z,27.96
2019-04-03T11:48:36.948Z,27.92
2019-04-03T11:49:36.906Z,27.90
2019-04-03T11:50:39.475Z,27.92
2019-04-03T11:51:37.054Z,27.85
2019-04-03T11:52:36.913Z,27.92
2019-04-03T11:53:36.950Z,27.90
2019-04-03T11:54:39.571Z,27.81
2019-04-03T11:55:36.923Z,27.87
2019-04-03T11:56:37.060Z,27.92
2019-04-03T11:57:37.371Z,27.87
2019-04-03T11:58:36.935Z,27.93
2019-04-03T11:59:37.084Z,27.81
2019-04-03T12:00:37.041Z,27.90
2019-04-03T12:01:37.408Z,27.81
2019-04-03T12:02:39.049Z,27.92
2019-04-03T12:03:36.949Z,27.81
2019-04-03T12:04:37.012Z,27.84
2019-04-03T12:05:37.230Z,27.81
2019-04-03T12:06:36.954Z,27.70
2019-04-03T12:07:37.345Z,27.85
2019-04-03T12:08:37.051Z,27.84
2019-04-03T12:09:37.067Z,27.77
2019-04-03T12:10:37.514Z,27.81
2019-04-03T12:11:38.417Z,27.87
2019-04-03T12:12:37.094Z,27.85
2019-04-03T12:13:37.085Z,27.70
2019-04-03T12:14:37.043Z,27.87
2019-04-03T12:15:36.989Z,27.75
2019-04-03T12:16:37.106Z,27.70
2019-04-03T12:17:36.998Z,27.74
2019-04-03T12:18:37.307Z,27.74
2019-04-03T12:19:37.861Z,27.77
2019-04-03T12:20:41.250Z,27.74
2019-04-03T12:21:37.004Z,27.79
2019-04-03T12:22:37.447Z,27.77
2019-04-03T12:23:39.265Z,27.79
2019-04-03T12:24:37.244Z,27.78
2019-04-03T12:25:39.565Z,27.77
2019-04-03T12:26:37.122Z,27.85
2019-04-03T12:27:37.075Z,27.72
2019-04-03T12:28:37.323Z,27.77
2019-04-03T12:29:37.516Z,27.67
2019-04-03T12:30:37.091Z,27.74
2019-04-03T12:31:37.091Z,27.77
2019-04-03T12:32:42.904Z,27.78
2019-04-03T12:33:37.044Z,27.70
2019-04-03T12:34:38.112Z,27.72
2019-04-03T12:35:37.379Z,27.65
2019-04-03T12:36:37.242Z,27.69
2019-04-03T12:37:37.077Z,27.70
2019-04-03T12:38:37.058Z,27.63
2019-04-03T12:39:37.113Z,27.62
2019-04-03T12:40:37.067Z,27.62
2019-04-03T12:41:37.939Z,27.69
2019-04-03T12:42:37.073Z,27.66
2019-04-03T12:43:37.107Z,27.67
2019-04-03T12:44:37.181Z,27.63
2019-04-03T12:45:37.133Z,27.62
2019-04-03T12:46:37.818Z,27.67
2019-04-03T12:47:37.095Z,27.63
2019-04-03T12:48:37.093Z,27.63
2019-04-03T12:49:37.094Z,27.63
2019-04-03T12:50:37.097Z,27.72
2019-04-03T12:51:37.102Z,27.66
2019-04-03T12:52:37.138Z,27.62